Météo Nord-Pas-de-Calais   La météo au plus près de chez vous

Observations météo à La Grand Combe (30132)

Dimanche 3 Mai 2026


Température maximale

17.1°C

à 17:00

06h 06h UTC

Température minimale

11.3°C

à 05:42

18h 18h UTC

Rafale maximale

37 km/h

à 14:54

00h 00h UTC

Précipitations

0 mm

06h 06h UTC

  Relevés météo

Afficher les données infra-horaire (6 mins)

Température
Point de rosée
Humidité
Vent
Précipitations
Heure Température
°C
Point de rosée
°C
Humidité
%
Vent
moyen (raf.), km/h
Précipitations
mm
22:00 13.1 °C 6.9 °C 66 %5 km/h (15 km/h) 0 mm0 mm
21:54 13.1 °C 6.9 °C 66 %4 km/h (8 km/h) 0 mm0 mm
21:48 13.2 °C 6.5 °C 64 %5 km/h (10 km/h) 0 mm0 mm
21:42 13.2 °C 6.3 °C 63 %6 km/h (14 km/h) 0 mm0 mm
21:36 13.3 °C 6.4 °C 63 %6 km/h (14 km/h) 0 mm0 mm
21:30 13.3 °C 6.4 °C 63 %6 km/h (10 km/h) 0 mm0 mm
21:24 13.4 °C 6.5 °C 63 %8 km/h (18 km/h) 0 mm0 mm
21:18 13.4 °C 6.3 °C 62 %9 km/h (18 km/h) 0 mm0 mm
21:12 13.4 °C 6.5 °C 63 %9 km/h (17 km/h) 0 mm0 mm
21:06 13.5 °C 6.6 °C 63 %9 km/h (17 km/h) 0 mm0 mm
21:00 13.5 °C 6.6 °C 63 %8 km/h (15 km/h) 0 mm0 mm
20:54 13.5 °C 6.6 °C 63 %9 km/h (20 km/h) 0 mm0 mm
20:48 13.6 °C 6.7 °C 63 %9 km/h (20 km/h) 0 mm0 mm
20:42 13.6 °C 6.9 °C 64 %9 km/h (17 km/h) 0 mm0 mm
20:36 13.7 °C 6.8 °C 63 %10 km/h (22 km/h) 0 mm0 mm
20:30 13.8 °C 6.9 °C 63 %12 km/h (22 km/h) 0 mm0 mm
20:24 13.9 °C 7 °C 63 %10 km/h (19 km/h) 0 mm0 mm
20:18 14 °C 7.1 °C 63 %11 km/h (22 km/h) 0 mm0 mm
20:12 14.1 °C 6.9 °C 62 %11 km/h (22 km/h) 0 mm0 mm
20:06 14.2 °C 7 °C 62 %10 km/h (19 km/h) 0 mm0 mm
20:00 14.2 °C 6.8 °C 61 %13 km/h (23 km/h) 0 mm0 mm
19:54 14.3 °C 6.9 °C 61 %13 km/h (27 km/h) 0 mm0 mm
19:48 14.3 °C 6.9 °C 61 %13 km/h (29 km/h) 0 mm0 mm
19:42 14.3 °C 6.6 °C 60 %14 km/h (29 km/h) 0 mm0 mm
19:36 14.4 °C 6.5 °C 59 %14 km/h (28 km/h) 0 mm0 mm
19:30 14.5 °C 6.6 °C 59 %14 km/h (28 km/h) 0 mm0 mm
19:24 14.6 °C 6.9 °C 60 %15 km/h (29 km/h) 0 mm0 mm
19:18 14.6 °C 6.9 °C 60 %16 km/h (32 km/h) 0 mm0 mm
19:12 14.8 °C 7.3 °C 61 %15 km/h (32 km/h) 0 mm0 mm
19:06 14.9 °C 7.2 °C 60 %14 km/h (28 km/h) 0 mm0 mm
19:00 14.9 °C 7 °C 59 %15 km/h (30 km/h) 0 mm0 mm
18:54 15.1 °C 7.6 °C 61 %15 km/h (28 km/h) 0 mm0 mm
18:48 15.3 °C 7.8 °C 61 %15 km/h (30 km/h) 0 mm0 mm
18:42 15.5 °C 7.8 °C 60 %17 km/h (30 km/h) 0 mm0 mm
18:36 15.8 °C 7.8 °C 59 %14 km/h (29 km/h) 0 mm0 mm
18:30 16.1 °C 7.8 °C 58 %12 km/h (25 km/h) 0 mm0 mm
18:24 16 °C 8 °C 59 %13 km/h (25 km/h) 0 mm0 mm
18:18 15.8 °C 7.5 °C 58 %15 km/h (27 km/h) 0 mm0 mm
18:12 15.9 °C 7.4 °C 57 %16 km/h (28 km/h) 0 mm0 mm
18:06 15.9 °C 7.9 °C 59 %15 km/h (27 km/h) 0 mm0 mm
18:00 16.2 °C 7.7 °C 57 %15 km/h (27 km/h) 0 mm0 mm
17:54 16.1 °C 7.3 °C 56 %16 km/h (28 km/h) 0 mm0 mm
17:48 16.3 °C 7.2 °C 55 %16 km/h (28 km/h) 0 mm0 mm
17:42 16.1 °C 6.8 °C 54 %14 km/h (28 km/h) 0 mm0 mm
17:36 16 °C 6.7 °C 54 %15 km/h (30 km/h) 0 mm0 mm
17:30 16 °C 5 °C 48 %18 km/h (36 km/h) 0 mm0 mm
17:24 16.2 °C 6.3 °C 52 %17 km/h (36 km/h) 0 mm0 mm
17:18 16.4 °C 6.8 °C 53 %16 km/h (31 km/h) 0 mm0 mm
17:12 16.6 °C 7.2 °C 54 %15 km/h (31 km/h) 0 mm0 mm
17:06 16.6 °C 7.2 °C 54 %17 km/h (32 km/h) 0 mm0 mm
17:00 16.9 °C 7 °C 52 %15 km/h (32 km/h) 0 mm0 mm
16:54 16.9 °C 7.8 °C 55 %12 km/h (26 km/h) 0 mm0 mm
16:48 17 °C 8.7 °C 58 %15 km/h (30 km/h) 0 mm0 mm
16:42 16.4 °C 8.6 °C 60 %15 km/h (28 km/h) 0 mm0 mm
16:36 15.9 °C 9.1 °C 64 %13 km/h (24 km/h) 0 mm0 mm
16:30 15.6 °C 9.3 °C 66 %14 km/h (32 km/h) 0 mm0 mm
16:24 15.6 °C 9 °C 65 %17 km/h (32 km/h) 0 mm0 mm
16:18 15.6 °C 9.5 °C 67 %16 km/h (34 km/h) 0 mm0 mm
16:12 15.5 °C 9.6 °C 68 %16 km/h (29 km/h) 0 mm0 mm
16:06 15.6 °C 9.5 °C 67 %17 km/h (29 km/h) 0 mm0 mm
16:00 15.6 °C 9.3 °C 66 %17 km/h (31 km/h) 0 mm0 mm
15:54 15.4 °C 9.3 °C 67 %19 km/h (32 km/h) 0 mm0 mm
15:48 15.6 °C 9 °C 65 %17 km/h (31 km/h) 0 mm0 mm
15:42 15.3 °C 9.4 °C 68 %15 km/h (29 km/h) 0 mm0 mm
15:36 15.1 °C 9.2 °C 68 %13 km/h (27 km/h) 0 mm0 mm
15:30 15.1 °C 9.2 °C 68 %15 km/h (27 km/h) 0 mm0 mm
15:24 15 °C 9.1 °C 68 %16 km/h (28 km/h) 0 mm0 mm
15:18 15 °C 9.6 °C 70 %15 km/h (28 km/h) 0 mm0 mm
15:12 15 °C 9.6 °C 70 %15 km/h (26 km/h) 0 mm0 mm
15:06 15 °C 9.8 °C 71 %17 km/h (30 km/h) 0 mm0 mm
15:00 15.1 °C 9.5 °C 69 %18 km/h (37 km/h) 0 mm0 mm
14:54 15.1 °C 9.2 °C 68 %18 km/h (37 km/h) 0 mm0 mm
14:48 15.1 °C 9.7 °C 70 %18 km/h (31 km/h) 0 mm0 mm
14:42 15.3 °C 9.6 °C 69 %17 km/h (31 km/h) 0 mm0 mm
14:36 16 °C 10.1 °C 68 %15 km/h (31 km/h) 0 mm0 mm
14:30 15.7 °C 10 °C 69 %17 km/h (31 km/h) 0 mm0 mm
14:24 15.5 °C 10 °C 70 %17 km/h (35 km/h) 0 mm0 mm
14:18 15.6 °C 10.4 °C 71 %17 km/h (28 km/h) 0 mm0 mm
14:12 15.4 °C 10 °C 70 %17 km/h (30 km/h) 0 mm0 mm
14:06 14.8 °C 9.6 °C 71 %15 km/h (30 km/h) 0 mm0 mm
14:00 14.8 °C 9.6 °C 71 %13 km/h (24 km/h) 0 mm0 mm
13:54 15.3 °C 9.4 °C 68 %14 km/h (26 km/h) 0 mm0 mm
13:48 15.3 °C 9.4 °C 68 %15 km/h (27 km/h) 0 mm0 mm
13:42 15.1 °C 9.7 °C 70 %17 km/h (32 km/h) 0 mm0 mm
13:36 15.2 °C 10 °C 71 %16 km/h (32 km/h) 0 mm0 mm
13:30 14.9 °C 10.5 °C 75 %14 km/h (29 km/h) 0 mm0 mm
13:24 14 °C 10 °C 77 %16 km/h (27 km/h) 0 mm0 mm
13:18 13.9 °C 9.9 °C 77 %17 km/h (33 km/h) 0 mm0 mm
13:12 14.1 °C 9.3 °C 73 %17 km/h (33 km/h) 0 mm0 mm
13:06 14.3 °C 9.7 °C 74 %16 km/h (28 km/h) 0 mm0 mm
13:00 14.1 °C 9.7 °C 75 %17 km/h (28 km/h) 0 mm0 mm
12:54 14 °C 9.8 °C 76 %15 km/h (30 km/h) 0 mm0 mm
12:48 14.1 °C 10.3 °C 78 %14 km/h (26 km/h) 0 mm0 mm
12:42 14 °C 10.4 °C 79 %15 km/h (26 km/h) 0 mm0 mm
12:36 13.9 °C 10.9 °C 82 %16 km/h (29 km/h) 0 mm0 mm
12:30 13.9 °C 10.3 °C 79 %17 km/h (29 km/h) 0 mm0 mm
12:24 14.4 °C 10.8 °C 79 %13 km/h (23 km/h) 0 mm0 mm
12:18 14.8 °C 11 °C 78 %10 km/h (20 km/h) 0 mm0 mm
12:12 14.8 °C 11.4 °C 80 %11 km/h (22 km/h) 0 mm0 mm
12:06 15 °C 11.6 °C 80 %11 km/h (22 km/h) 0 mm0 mm
12:00 14.3 °C 11.8 °C 85 %9 km/h (20 km/h) 0 mm0 mm
11:54 13.8 °C 11.5 °C 86 %10 km/h (18 km/h) 0 mm0 mm
11:48 13.5 °C 11.2 °C 86 %10 km/h (18 km/h) 0 mm0 mm
11:42 13.3 °C 11.7 °C 90 %11 km/h (22 km/h) 0 mm0 mm
11:36 13 °C 11.6 °C 91 %13 km/h (22 km/h) 0 mm0 mm
11:30 12.8 °C 11.4 °C 91 %12 km/h (22 km/h) 0 mm0 mm
11:24 12.6 °C 11.7 °C 94 %11 km/h (25 km/h) 0 mm0 mm
11:18 12.5 °C 11.7 °C 95 %9 km/h (18 km/h) 0 mm0 mm
11:12 12.3 °C 11.5 °C 95 %9 km/h (18 km/h) 0 mm0 mm
11:06 12.2 °C 11.4 °C 95 %9 km/h (17 km/h) 0 mm0 mm
11:00 12.1 °C 11.5 °C 96 %9 km/h (14 km/h) 0 mm0 mm
10:54 12 °C 11.4 °C 96 %10 km/h (17 km/h) 0 mm0 mm
10:48 12 °C 11.4 °C 96 %11 km/h (18 km/h) 0 mm0 mm
10:42 12 °C 11.4 °C 96 %11 km/h (21 km/h) 0 mm0 mm
10:36 11.9 °C 11.4 °C 97 %10 km/h (19 km/h) 0 mm0 mm
10:30 11.8 °C 11.3 °C 97 %10 km/h (21 km/h) 0 mm0 mm
10:24 11.7 °C 11.2 °C 97 %10 km/h (19 km/h) 0 mm0 mm
10:18 11.7 °C 11.2 °C 97 %11 km/h (19 km/h) 0 mm0 mm
10:12 11.7 °C 11.2 °C 97 %12 km/h (22 km/h) 0 mm0 mm
10:06 11.7 °C 11.2 °C 97 %12 km/h (22 km/h) 0 mm0 mm
10:00 11.7 °C 11.4 °C 98 %10 km/h (23 km/h) 0 mm0 mm
09:54 11.6 °C 11.3 °C 98 %11 km/h (23 km/h) 0 mm0 mm
09:48 11.6 °C 11.4 °C 99 %11 km/h (21 km/h) 0 mm0 mm
09:42 11.5 °C 11.2 °C 98 %10 km/h (21 km/h) 0 mm0 mm
09:36 11.5 °C 11.2 °C 98 %8 km/h (15 km/h) 0 mm0 mm
09:30 11.5 °C 11.2 °C 98 %8 km/h (18 km/h) 0 mm0 mm
09:24 11.5 °C 11.2 °C 98 %8 km/h (18 km/h) 0 mm0 mm
09:18 11.5 °C 11.2 °C 98 %8 km/h (17 km/h) 0 mm0 mm
09:12 11.6 °C 11.3 °C 98 %9 km/h (19 km/h) 0 mm0 mm
09:06 11.5 °C 11.2 °C 98 %10 km/h (19 km/h) 0 mm0 mm
09:00 11.6 °C 11.3 °C 98 %10 km/h (19 km/h) 0 mm0 mm
08:54 11.5 °C 11.3 °C 99 %10 km/h (19 km/h) 0 mm0 mm
08:48 11.5 °C 11.3 °C 99 %9 km/h (15 km/h) 0 mm0 mm
08:42 11.6 °C 11.4 °C 99 %9 km/h (18 km/h) 0 mm0 mm
08:36 11.5 °C 11.3 °C 99 %10 km/h (18 km/h) 0 mm0 mm
08:30 11.5 °C 11.3 °C 99 %10 km/h (22 km/h) 0 mm0 mm
08:24 11.5 °C 11.3 °C 99 %12 km/h (23 km/h) 0 mm0 mm
08:18 11.5 °C 11.3 °C 99 %10 km/h (23 km/h) 0 mm0 mm
08:12 11.6 °C 11.4 °C 99 %10 km/h (17 km/h) 0 mm0 mm
08:06 11.5 °C 11.3 °C 99 %11 km/h (20 km/h) 0 mm0 mm
08:00 11.6 °C 11.4 °C 99 %12 km/h (20 km/h) 0 mm0 mm
07:54 11.5 °C 11.3 °C 99 %10 km/h (19 km/h) 0 mm0 mm
07:48 11.5 °C 11.3 °C 99 %9 km/h (22 km/h) 0 mm0 mm
07:42 11.4 °C 11.2 °C 99 %8 km/h (16 km/h) 0 mm0 mm
07:36 11.4 °C 11.2 °C 99 %9 km/h (21 km/h) 0 mm0 mm
07:30 11.3 °C 11.1 °C 99 %8 km/h (13 km/h) 0 mm0 mm
07:24 11.3 °C 11.1 °C 99 %7 km/h (13 km/h) 0 mm0 mm
07:18 11.3 °C 11.1 °C 99 %7 km/h (15 km/h) 0 mm0 mm
07:12 11.3 °C 11.1 °C 99 %8 km/h (18 km/h) 0 mm0 mm
07:06 11.3 °C 11.1 °C 99 %7 km/h (18 km/h) 0 mm0 mm
07:00 11.3 °C 11.1 °C 99 %8 km/h (19 km/h) 0 mm0 mm
06:54 11.4 °C 11.2 °C 99 %8 km/h (19 km/h) 0 mm0 mm
06:48 11.4 °C 11.2 °C 99 %8 km/h (17 km/h) 0 mm0 mm
06:42 11.4 °C 11.2 °C 99 %8 km/h (17 km/h) 0 mm0 mm
06:36 11.4 °C 11.2 °C 99 %8 km/h (18 km/h) 0 mm0 mm
06:30 11.4 °C 11.2 °C 99 %8 km/h (18 km/h) 0 mm0 mm
06:24 11.4 °C 11.2 °C 99 %8 km/h (15 km/h) 0 mm0 mm
06:18 11.4 °C 11.2 °C 99 %8 km/h (14 km/h) 0 mm0 mm
06:12 11.4 °C 11.2 °C 99 %7 km/h (14 km/h) 0 mm0 mm
06:06 11.4 °C 11.2 °C 99 %5 km/h (10 km/h) 0 mm0 mm
06:00 11.3 °C 11.1 °C 99 %5 km/h (8 km/h) 0 mm0 mm
05:54 11.3 °C 11 °C 98 %5 km/h (12 km/h) 0 mm0 mm
05:48 11.3 °C 11 °C 98 %6 km/h (12 km/h) 0 mm0 mm
05:42 11.3 °C 11 °C 98 %5 km/h (11 km/h) 0 mm0 mm
05:36 11.4 °C 11.1 °C 98 %5 km/h (11 km/h) 0 mm0 mm
05:30 11.4 °C 11.1 °C 98 %6 km/h (12 km/h) 0 mm0 mm
05:24 11.4 °C 11.1 °C 98 %7 km/h (13 km/h) 0 mm0 mm
05:18 11.4 °C 11.1 °C 98 %6 km/h (13 km/h) 0 mm0 mm
05:12 11.4 °C 10.9 °C 97 %5 km/h (13 km/h) 0 mm0 mm
05:06 11.4 °C 10.9 °C 97 %4 km/h (8 km/h) 0 mm0 mm
05:00 11.4 °C 10.9 °C 97 %6 km/h (10 km/h) 0 mm0 mm
04:54 11.4 °C 10.9 °C 97 %6 km/h (10 km/h) 0 mm0 mm
04:48 11.4 °C 10.9 °C 97 %6 km/h (11 km/h) 0 mm0 mm
04:42 11.4 °C 10.9 °C 97 %6 km/h (11 km/h) 0 mm0 mm
04:36 11.4 °C 10.9 °C 97 %7 km/h (13 km/h) 0 mm0 mm
04:30 11.5 °C 11 °C 97 %8 km/h (14 km/h) 0 mm0 mm
04:24 11.5 °C 11 °C 97 %8 km/h (14 km/h) 0 mm0 mm
04:18 11.4 °C 10.9 °C 97 %6 km/h (10 km/h) 0 mm0 mm
04:12 11.4 °C 10.8 °C 96 %6 km/h (12 km/h) 0 mm0 mm
04:06 11.5 °C 10.9 °C 96 %7 km/h (14 km/h) 0 mm0 mm
04:00 11.5 °C 10.9 °C 96 %7 km/h (14 km/h) 0 mm0 mm
03:54 11.5 °C 10.9 °C 96 %7 km/h (13 km/h) 0 mm0 mm
03:48 11.5 °C 10.7 °C 95 %8 km/h (14 km/h) 0 mm0 mm
03:42 11.6 °C 11 °C 96 %9 km/h (14 km/h) 0 mm0 mm
03:36 11.6 °C 11 °C 96 %8 km/h (13 km/h) 0 mm0 mm
03:30 11.6 °C 11 °C 96 %8 km/h (13 km/h) 0 mm0 mm
03:24 11.5 °C 10.9 °C 96 %7 km/h (11 km/h) 0 mm0 mm
03:18 11.5 °C 10.7 °C 95 %6 km/h (9 km/h) 0 mm0 mm
03:12 11.5 °C 10.6 °C 94 %6 km/h (11 km/h) 0 mm0 mm
03:06 11.6 °C 10.7 °C 94 %6 km/h (9 km/h) 0 mm0 mm
03:00 11.6 °C 10.7 °C 94 %5 km/h (8 km/h) 0 mm0 mm
02:54 11.6 °C 10.7 °C 94 %5 km/h (7 km/h) 0 mm0 mm
02:48 11.6 °C 10.5 °C 93 %4 km/h (7 km/h) 0 mm0 mm
02:42 11.6 °C 10.5 °C 93 %4 km/h (7 km/h) 0 mm0 mm
02:36 11.6 °C 10.5 °C 93 %2 km/h (5 km/h) 0 mm0 mm
02:30 11.6 °C 10.3 °C 92 %3 km/h (5 km/h) 0 mm0 mm
02:24 11.6 °C 10.3 °C 92 %4 km/h (6 km/h) 0 mm0 mm
02:18 11.5 °C 10.2 °C 92 %4 km/h (6 km/h) 0 mm0 mm
02:12 11.4 °C 10.3 °C 93 %2 km/h (5 km/h) 0 mm0 mm
02:06 11.4 °C 10.1 °C 92 %0 km/h (4 km/h) 0 mm0 mm
02:00 11.4 °C 10.1 °C 92 %2 km/h (5 km/h) 0 mm0 mm
01:54 11.4 °C 10.1 °C 92 %2 km/h (5 km/h) 0 mm0 mm
01:48 11.4 °C 10.1 °C 92 %2 km/h (6 km/h) 0 mm0 mm
01:42 11.4 °C 10.1 °C 92 %4 km/h (7 km/h) 0 mm0 mm
01:36 11.5 °C 10.1 °C 91 %5 km/h (10 km/h) 0 mm0 mm
01:30 11.5 °C 10.1 °C 91 %5 km/h (9 km/h) 0 mm0 mm
01:24 11.6 °C 10.2 °C 91 %5 km/h (10 km/h) 0 mm0 mm
01:18 11.6 °C 10.2 °C 91 %6 km/h (12 km/h) 0 mm0 mm
01:12 11.6 °C 10.2 °C 91 %5 km/h (9 km/h) 0 mm0 mm
01:06 11.6 °C 10.2 °C 91 %5 km/h (9 km/h) 0 mm0 mm
01:00 11.7 °C 10.3 °C 91 %4 km/h (11 km/h) 0 mm0 mm
00:54 11.7 °C 10.1 °C 90 %4 km/h (9 km/h) 0 mm0 mm
00:48 11.7 °C 10.1 °C 90 %4 km/h (9 km/h) 0 mm0 mm
00:42 11.8 °C 10.2 °C 90 %4 km/h (9 km/h) 0 mm0 mm
00:36 11.8 °C 10.2 °C 90 %5 km/h (15 km/h) 0 mm0 mm
00:30 11.8 °C 10 °C 89 %5 km/h (15 km/h) 0 mm0 mm
00:24 11.9 °C 10.1 °C 89 %6 km/h (11 km/h) 0 mm0 mm
00:18 11.9 °C 10.1 °C 89 %6 km/h (11 km/h) 0 mm0 mm
00:12 12 °C 10.2 °C 89 %5 km/h (10 km/h) 0 mm0 mm
00:06 11.9 °C 10.1 °C 89 %5 km/h (10 km/h) 0 mm0 mm
00:00 11.8 °C 9.9 °C 88 %5 km/h (10 km/h) 0 mm0 mm

Données via Météo-France

   Vigilance

   Dernière mise à jour Dimanche à 16:00

Application mobile

iOS

Android / iOS / PC

   Fil d'actualités

  Il y a 2 heuresVoir plus

> Prévisions pour le 04/05 : Ciel généralement couvert en matinée, avec tout de même quelques rares éclaircies. Rapidement vers la fin de matinée, des averses orageuses prendront naissance autour de l'Avesnois. Ces averses pourront se généraliser aux secteurs limitrophes dans l'après-midi (Cambrésis, Valenciennois, ... jusqu'à la métropolle Lilloise et l'Artois) en cours d'après-midi, mais sans certitude. Ces averses orageuses seront très peu mobiles et très localisées: quelques inondations localisées sont possibles sur les secteurs habitués dans ce genre de situation. Compte tenu de la difficulté de la prévision et du caractère très localisé de ces averses, on pourrait passer à côté... ou non. Baisse des températures au global sur la région, avec pas plus de 17°C pour les maximales ! En matinée, températures comprises entre 11°C et 12°C. Vent faible. Dans l'après-midi, températures comprises entre 12°C et 17°C. Vent faible. Pensez à regarder les cartes pour voir le temps prévu! Bonne soirée ! :) Hugo. ---- 👉 Retrouvez les prévisions pour votre ville sur https://meteo-npdc.fr/previsions/ma-ville/

  Il y a 4 heuresVoir plus

⚡️ Alors que nos averses orageuses quittent la région par la Belgique, d'autres se situent encore entre Cambrésis/Avesnois/Valenciennois... et d'autres arrivent encore par la Picardie ! Il y a encore de la réserve derrière, ce n'est donc pas encore totalement terminé. Fin prévue en soirée :) Hugo

  Il y a 5 heuresVoir plus

⚡️ L'essentiel de l'activité orageuse se situe entre Arras et Lille maintenant, où les pluies sont également les plus intenses. Ailleurs, pluies modérées et ponctuellment fortes... ou rien du tout ! 😁 Cet orage va remonter sur la métropole Lilloise avant de nous quitter vers la Belgique très bientôt :)

  Il y a 6 heuresVoir plus

Comme je vous le disais, pas grand chose à attendre cet après-midi: au moins nous avons un peu d'eau, pour le plus grand bien de nos jardins ! Il faudra attendre la soirée pour que ces averses ne cessent. En attendant, profitez-en pour faire la danse de la pluie 😁 Hugo

  Il y a 8 heuresVoir plus

⚡️ Retour des orages cet après-midi, notamment autour de Lillers. Beaucoup de réserve également arrivant sur la Somme, ce n'est donc que le début des festivités pour la journée ! Pas grand chose à attendre néanmoins en dehors de coups de tonnerre / fortes pluies. Le Boulonnais et le Calaisis devraient rester en marge cet après-midi, même si une averse n'est pas totalement à exclure ;) Hugo